createdAt,value
2023-03-18T00:01:57.479Z,59.98
2023-03-18T00:05:00.403Z,59.90
2023-03-18T00:08:04.815Z,59.94
2023-03-18T00:11:08.763Z,59.99
2023-03-18T00:14:11.322Z,59.76
2023-03-18T00:17:14.018Z,59.96
2023-03-18T00:20:18.661Z,59.77
2023-03-18T00:23:22.593Z,60.13
2023-03-18T00:26:26.025Z,60.05
2023-03-18T00:29:28.713Z,60.71
2023-03-18T00:32:31.704Z,60.78
2023-03-18T00:35:34.656Z,60.42
2023-03-18T00:38:37.561Z,60.02
2023-03-18T00:41:40.201Z,59.97
2023-03-18T00:44:44.255Z,59.75
2023-03-18T00:47:49.628Z,59.97
2023-03-18T00:50:52.273Z,60.15
2023-03-18T00:53:57.709Z,60.01
2023-03-18T00:57:00.724Z,60.90
2023-03-18T01:00:07.220Z,60.73
2023-03-18T01:03:09.956Z,60.34
2023-03-18T01:06:14.558Z,60.69
2023-03-18T01:09:17.135Z,60.53
2023-03-18T01:12:19.670Z,60.07
2023-03-18T01:15:23.457Z,59.37
2023-03-18T01:18:26.263Z,59.26
2023-03-18T01:21:28.927Z,59.35
2023-03-18T01:24:36.798Z,59.69
2023-03-18T01:27:40.953Z,59.48
2023-03-18T01:30:44.377Z,59.37
2023-03-18T01:33:48.081Z,59.05
2023-03-18T01:36:50.898Z,58.72
2023-03-18T01:39:55.585Z,58.58
2023-03-18T01:43:13.477Z,59.29
2023-03-18T01:46:39.602Z,60.58
2023-03-18T01:49:50.348Z,60.29
2023-03-18T01:52:56.535Z,60.09
2023-03-18T01:56:01.504Z,59.95
2023-03-18T01:59:05.155Z,60.62
2023-03-18T02:02:10.522Z,61.38
2023-03-18T02:05:20.789Z,60.96
2023-03-18T02:08:23.663Z,60.96
2023-03-18T02:11:27.331Z,60.54
2023-03-18T02:14:33.248Z,60.57
2023-03-18T02:17:39.436Z,60.47
2023-03-18T02:20:52.584Z,60.71
2023-03-18T02:24:20.066Z,60.78
2023-03-18T02:27:27.617Z,60.95
2023-03-18T02:30:43.707Z,60.43
2023-03-18T02:33:48.434Z,60.81
2023-03-18T02:36:51.244Z,60.91
2023-03-18T02:39:53.755Z,60.86
2023-03-18T02:43:20.584Z,60.80
2023-03-18T02:46:47.128Z,60.92
2023-03-18T02:49:50.263Z,61.32
2023-03-18T02:52:52.921Z,61.51
2023-03-18T02:55:58.434Z,61.51
2023-03-18T02:59:02.103Z,61.66
2023-03-18T03:02:04.821Z,61.54
2023-03-18T03:05:09.378Z,61.33
2023-03-18T03:08:12.247Z,61.27
2023-03-18T03:11:19.313Z,61.70
2023-03-18T03:14:22.556Z,60.83
2023-03-18T03:17:29.346Z,60.70
2023-03-18T03:20:37.687Z,60.94
2023-03-18T03:23:40.456Z,60.99
2023-03-18T03:26:43.220Z,60.98
2023-03-18T03:29:47.369Z,61.49
2023-03-18T03:32:50.254Z,61.28
2023-03-18T03:35:52.831Z,61.24
2023-03-18T03:38:55.721Z,61.36
2023-03-18T03:41:58.505Z,60.94
2023-03-18T03:45:01.303Z,60.48
2023-03-18T03:48:04.307Z,61.05
2023-03-18T03:51:07.731Z,61.20
2023-03-18T03:54:13.390Z,61.22
2023-03-18T03:57:17.112Z,60.30
2023-03-18T04:00:21.430Z,60.18
2023-03-18T04:03:25.840Z,60.73
2023-03-18T04:06:28.826Z,60.27
2023-03-18T04:09:36.853Z,59.96
2023-03-18T04:12:40.046Z,59.64
2023-03-18T04:15:43.212Z,58.95
2023-03-18T04:18:50.344Z,59.72
2023-03-18T04:21:54.191Z,60.29
2023-03-18T04:24:56.963Z,59.64
2023-03-18T04:27:59.794Z,59.31
2023-03-18T04:31:02.557Z,59.86
2023-03-18T04:34:05.485Z,58.67
2023-03-18T04:37:09.149Z,58.68
2023-03-18T04:40:14.268Z,58.49
2023-03-18T04:43:17.120Z,58.57
2023-03-18T04:46:22.552Z,58.00
2023-03-18T04:49:26.057Z,58.10
2023-03-18T04:52:30.682Z,57.91
2023-03-18T04:55:34.380Z,57.59
2023-03-18T04:58:39.617Z,57.23
2023-03-18T05:01:50.432Z,57.86
2023-03-18T05:04:53.931Z,57.68
2023-03-18T05:07:57.202Z,57.21
2023-03-18T05:11:00.120Z,57.17
2023-03-18T05:14:03.399Z,57.44
2023-03-18T05:17:17.559Z,57.44
2023-03-18T05:20:29.861Z,56.90
2023-03-18T05:23:34.602Z,56.50
2023-03-18T05:26:39.058Z,56.01
2023-03-18T05:29:43.676Z,55.99
2023-03-18T05:32:54.205Z,55.16
2023-03-18T05:36:07.955Z,55.08
2023-03-18T05:39:16.468Z,55.27
2023-03-18T05:42:19.990Z,54.91
2023-03-18T05:45:23.286Z,55.13
2023-03-18T05:48:30.331Z,54.60
2023-03-18T05:51:38.255Z,54.05
2023-03-18T05:54:44.808Z,53.85
2023-03-18T05:57:49.892Z,52.85
2023-03-18T06:00:53.878Z,53.05
2023-03-18T06:03:56.658Z,52.21
2023-03-18T06:06:59.381Z,52.31
2023-03-18T06:10:02.059Z,51.29
2023-03-18T06:13:04.851Z,50.77
2023-03-18T06:16:08.906Z,50.70
2023-03-18T06:19:12.259Z,50.31
2023-03-18T06:22:15.690Z,50.06
2023-03-18T06:25:20.281Z,49.55
2023-03-18T06:28:24.952Z,49.84
2023-03-18T06:31:28.338Z,49.20
2023-03-18T06:34:31.902Z,49.74
2023-03-18T06:37:34.926Z,48.88
2023-03-18T06:40:38.023Z,48.40
2023-03-18T06:43:42.002Z,49.45
2023-03-18T06:46:45.430Z,48.69
2023-03-18T06:49:49.964Z,48.95
2023-03-18T06:52:56.849Z,48.29
2023-03-18T06:56:06.292Z,47.95
2023-03-18T06:59:21.827Z,47.17
2023-03-18T07:02:25.311Z,47.20
2023-03-18T07:05:30.959Z,47.48
2023-03-18T07:08:33.975Z,47.71
2023-03-18T07:11:37.384Z,47.70
2023-03-18T07:14:45.791Z,47.51
2023-03-18T07:17:50.735Z,47.22
2023-03-18T07:20:54.628Z,46.56
2023-03-18T07:23:59.643Z,47.29
2023-03-18T07:27:02.427Z,46.81
2023-03-18T07:30:05.370Z,48.25
2023-03-18T07:33:09.005Z,46.85
2023-03-18T07:36:13.790Z,47.83
2023-03-18T07:39:16.536Z,47.56
2023-03-18T07:42:19.607Z,47.55
2023-03-18T07:45:22.303Z,47.76
2023-03-18T07:48:25.539Z,46.75
2023-03-18T07:51:28.264Z,46.86
2023-03-18T07:54:31.043Z,46.79
2023-03-18T07:57:33.678Z,47.18
2023-03-18T08:00:36.365Z,46.76
2023-03-18T08:03:38.973Z,46.80
2023-03-18T08:06:41.769Z,46.19
2023-03-18T08:09:44.381Z,46.27
2023-03-18T08:12:53.173Z,46.10
2023-03-18T08:15:56.655Z,46.36
2023-03-18T08:19:02.602Z,46.21
2023-03-18T08:22:05.299Z,46.75
2023-03-18T08:25:08.434Z,45.59
2023-03-18T08:28:11.962Z,46.26
2023-03-18T08:31:14.822Z,45.84
2023-03-18T08:34:20.425Z,45.12
2023-03-18T08:37:23.273Z,45.80
2023-03-18T08:40:27.155Z,45.15
2023-03-18T08:43:30.221Z,45.64
2023-03-18T08:46:33.125Z,45.84
2023-03-18T08:49:35.943Z,45.59
2023-03-18T08:52:38.925Z,46.25
2023-03-18T08:55:42.240Z,45.93
2023-03-18T08:58:46.101Z,45.80
2023-03-18T09:01:49.485Z,46.05
2023-03-18T09:04:54.546Z,45.76
2023-03-18T09:07:58.881Z,45.16
2023-03-18T09:11:01.735Z,45.73
2023-03-18T09:14:04.799Z,44.86
2023-03-18T09:17:07.820Z,44.46
2023-03-18T09:20:13.046Z,44.81
2023-03-18T09:23:15.958Z,44.11
2023-03-18T09:26:18.795Z,42.50
2023-03-18T09:29:21.741Z,43.87
2023-03-18T09:32:24.308Z,43.13
2023-03-18T09:35:29.291Z,42.77
2023-03-18T09:38:32.717Z,41.58
2023-03-18T09:41:50.579Z,41.92
2023-03-18T09:44:59.881Z,41.19
2023-03-18T09:48:11.753Z,40.81
2023-03-18T09:51:33.564Z,40.58
2023-03-18T09:54:45.058Z,40.59
2023-03-18T09:57:48.889Z,40.95
2023-03-18T10:00:59.522Z,39.98
2023-03-18T10:04:21.798Z,41.26
2023-03-18T10:07:30.320Z,40.50
2023-03-18T10:10:38.072Z,39.31
2023-03-18T10:13:47.067Z,39.99
2023-03-18T10:17:06.322Z,39.76
2023-03-18T10:20:29.190Z,38.94
2023-03-18T10:24:19.659Z,38.89
2023-03-18T10:27:53.869Z,38.96
2023-03-18T10:31:22.729Z,38.99
2023-03-18T10:34:38.045Z,38.96
2023-03-18T10:38:21.910Z,38.49
2023-03-18T10:41:27.048Z,39.66
2023-03-18T10:44:36.992Z,38.47
2023-03-18T10:47:42.328Z,38.08
2023-03-18T10:51:12.889Z,37.56
2023-03-18T10:54:50.685Z,37.79
2023-03-18T10:57:53.227Z,37.75
2023-03-18T11:00:56.254Z,37.43
2023-03-18T11:04:01.842Z,37.63
2023-03-18T11:07:08.150Z,37.25
2023-03-18T11:10:18.342Z,36.59
2023-03-18T11:13:22.415Z,38.41
2023-03-18T11:16:30.794Z,36.87
2023-03-18T11:20:01.003Z,34.77
2023-03-18T11:23:13.867Z,35.75
2023-03-18T11:26:24.281Z,35.06
2023-03-18T11:29:33.235Z,36.01
2023-03-18T11:32:37.516Z,35.98
2023-03-18T11:35:48.439Z,35.52
2023-03-18T11:39:05.890Z,33.52
2023-03-18T11:42:26.725Z,33.65
2023-03-18T11:45:44.752Z,33.90
2023-03-18T11:48:47.396Z,34.68
2023-03-18T11:52:05.396Z,33.75
2023-03-18T11:55:18.880Z,34.10
2023-03-18T11:58:28.827Z,33.11
2023-03-18T12:01:57.947Z,33.03
2023-03-18T12:05:12.956Z,34.42
2023-03-18T12:08:22.942Z,33.49
2023-03-18T12:11:28.978Z,33.97
2023-03-18T12:14:31.514Z,33.07
2023-03-18T12:17:45.333Z,32.71
2023-03-18T12:20:55.692Z,31.61
2023-03-18T12:24:04.307Z,31.77
2023-03-18T12:27:25.144Z,30.17
2023-03-18T12:30:37.123Z,30.80
2023-03-18T12:33:58.574Z,29.92
2023-03-18T12:37:20.069Z,29.45
2023-03-18T12:40:41.616Z,30.42
2023-03-18T12:44:06.931Z,29.77
2023-03-18T12:47:21.579Z,29.07
2023-03-18T12:50:54.255Z,29.63
2023-03-18T12:54:01.121Z,31.13
2023-03-18T12:57:13.069Z,30.35
2023-03-18T13:00:28.425Z,30.09
2023-03-18T13:03:35.704Z,30.43
2023-03-18T13:06:42.540Z,29.08
2023-03-18T13:10:14.689Z,29.09
2023-03-18T13:13:17.568Z,30.14
2023-03-18T13:16:22.339Z,32.39
2023-03-18T13:19:26.433Z,31.11
2023-03-18T13:23:01.922Z,30.60
2023-03-18T13:26:34.987Z,29.36
2023-03-18T13:29:53.348Z,30.09
2023-03-18T13:33:14.824Z,31.28
2023-03-18T13:36:17.658Z,32.81
2023-03-18T13:39:42.477Z,31.12
2023-03-18T13:42:45.942Z,32.33
2023-03-18T13:45:53.895Z,32.27
2023-03-18T13:48:59.143Z,31.95
2023-03-18T13:52:04.311Z,32.24
2023-03-18T13:55:33.242Z,32.20
2023-03-18T13:58:48.430Z,33.39
2023-03-18T14:01:51.431Z,33.68
2023-03-18T14:04:54.728Z,34.02
2023-03-18T14:07:57.602Z,33.51
2023-03-18T14:11:23.288Z,31.65
2023-03-18T14:14:54.158Z,32.90
2023-03-18T14:17:59.007Z,34.30
2023-03-18T14:21:03.702Z,33.55
2023-03-18T14:24:18.495Z,33.13
2023-03-18T14:27:23.008Z,34.62
2023-03-18T14:30:35.020Z,34.39
2023-03-18T14:34:10.496Z,34.32
2023-03-18T14:37:21.282Z,34.52
2023-03-18T14:40:23.993Z,34.18
2023-03-18T14:43:45.263Z,33.16
2023-03-18T14:46:51.919Z,33.89
2023-03-18T14:50:04.418Z,33.80
2023-03-18T14:53:17.416Z,33.88
2023-03-18T14:56:22.983Z,34.46
2023-03-18T14:59:25.883Z,33.99
2023-03-18T15:02:34.618Z,35.39
2023-03-18T15:05:42.622Z,34.00
2023-03-18T15:09:19.624Z,33.49
2023-03-18T15:12:28.559Z,33.61
2023-03-18T15:15:32.664Z,34.79
2023-03-18T15:18:38.315Z,34.21
2023-03-18T15:21:41.559Z,35.39
2023-03-18T15:24:44.349Z,33.83
2023-03-18T15:27:48.594Z,34.87
2023-03-18T15:30:54.735Z,34.70
2023-03-18T15:34:15.611Z,34.13
2023-03-18T15:37:24.370Z,34.46
2023-03-18T15:40:33.535Z,33.67
2023-03-18T15:43:42.832Z,36.11
2023-03-18T15:46:48.610Z,35.27
2023-03-18T15:50:02.495Z,35.09
2023-03-18T15:53:25.916Z,34.30
2023-03-18T15:56:32.268Z,35.89
2023-03-18T15:59:35.776Z,36.71
2023-03-18T16:02:38.672Z,36.85
2023-03-18T16:05:41.937Z,35.94
2023-03-18T16:08:46.387Z,36.66
2023-03-18T16:12:08.955Z,35.60
2023-03-18T16:15:24.306Z,35.48
2023-03-18T16:18:27.367Z,37.19
2023-03-18T16:21:30.192Z,37.37
2023-03-18T16:24:32.894Z,37.19
2023-03-18T16:27:42.038Z,37.85
2023-03-18T16:30:45.208Z,37.86
2023-03-18T16:33:50.366Z,38.61
2023-03-18T16:36:53.838Z,39.48
2023-03-18T16:39:57.729Z,39.00
2023-03-18T16:43:00.586Z,39.17
2023-03-18T16:46:06.724Z,39.23
2023-03-18T16:49:21.525Z,39.13
2023-03-18T16:52:24.242Z,39.14
2023-03-18T16:55:27.130Z,40.41
2023-03-18T16:58:35.670Z,40.42
2023-03-18T17:01:38.781Z,41.08
2023-03-18T17:04:43.087Z,40.81
2023-03-18T17:07:45.923Z,41.59
2023-03-18T17:10:51.725Z,41.84
2023-03-18T17:13:54.933Z,42.76
2023-03-18T17:17:00.155Z,43.30
2023-03-18T17:20:04.614Z,43.21
2023-03-18T17:23:09.850Z,43.23
2023-03-18T17:26:15.277Z,44.12
2023-03-18T17:29:27.056Z,44.67
2023-03-18T17:32:29.947Z,45.17
2023-03-18T17:35:33.218Z,45.94
2023-03-18T17:38:36.762Z,46.36
2023-03-18T17:41:40.046Z,46.61
2023-03-18T17:44:42.736Z,47.04
2023-03-18T17:47:46.081Z,47.56
2023-03-18T17:50:54.040Z,47.96
2023-03-18T17:53:59.459Z,48.32
2023-03-18T17:57:04.003Z,48.16
2023-03-18T18:00:24.731Z,48.27
2023-03-18T18:03:29.609Z,48.37
2023-03-18T18:06:33.936Z,48.18
2023-03-18T18:09:36.859Z,48.37
2023-03-18T18:12:39.517Z,48.45
2023-03-18T18:15:42.612Z,48.59
2023-03-18T18:18:47.762Z,48.74
2023-03-18T18:21:53.436Z,49.01
2023-03-18T18:24:58.029Z,49.00
2023-03-18T18:28:01.308Z,48.99
2023-03-18T18:31:07.848Z,49.11
2023-03-18T18:34:10.703Z,49.51
2023-03-18T18:37:14.258Z,49.58
2023-03-18T18:40:18.324Z,49.78
2023-03-18T18:43:22.476Z,50.33
2023-03-18T18:46:26.719Z,50.24
2023-03-18T18:49:29.540Z,50.72
2023-03-18T18:52:34.333Z,50.11
2023-03-18T18:55:37.329Z,50.54
2023-03-18T18:58:40.597Z,50.60
2023-03-18T19:01:43.329Z,50.22
2023-03-18T19:04:46.885Z,50.26
2023-03-18T19:07:50.571Z,51.18
2023-03-18T19:10:59.254Z,51.24
2023-03-18T19:14:24.834Z,52.16
2023-03-18T19:17:27.743Z,51.89
2023-03-18T19:20:31.182Z,52.07
2023-03-18T19:23:35.449Z,52.31
2023-03-18T19:26:38.232Z,51.98
2023-03-18T19:29:44.826Z,52.21
2023-03-18T19:32:47.771Z,51.80
2023-03-18T19:35:51.524Z,52.02
2023-03-18T19:38:55.879Z,52.04
2023-03-18T19:41:59.083Z,52.02
2023-03-18T19:45:02.180Z,52.52
2023-03-18T19:48:05.109Z,53.06
2023-03-18T19:51:08.863Z,52.94
2023-03-18T19:54:21.765Z,53.19
2023-03-18T19:57:27.904Z,52.80
2023-03-18T20:00:31.109Z,52.23
2023-03-18T20:03:34.651Z,52.13
2023-03-18T20:06:37.438Z,52.84
2023-03-18T20:09:40.197Z,52.63
2023-03-18T20:12:46.240Z,52.49
2023-03-18T20:15:49.401Z,52.80
2023-03-18T20:18:52.343Z,53.25
2023-03-18T20:21:55.804Z,53.07
2023-03-18T20:24:58.705Z,53.11
2023-03-18T20:28:02.517Z,54.58
2023-03-18T20:31:06.401Z,55.04
2023-03-18T20:34:09.353Z,54.89
2023-03-18T20:37:29.409Z,55.44
2023-03-18T20:40:32.405Z,55.41
2023-03-18T20:43:35.363Z,55.56
2023-03-18T20:46:38.327Z,55.43
2023-03-18T20:49:44.809Z,55.85
2023-03-18T20:52:49.282Z,56.52
2023-03-18T20:55:52.379Z,57.60
2023-03-18T20:58:55.166Z,57.64
2023-03-18T21:01:58.968Z,57.24
2023-03-18T21:05:02.476Z,57.33
2023-03-18T21:08:05.482Z,57.32
2023-03-18T21:11:19.425Z,58.92
2023-03-18T21:14:22.204Z,58.86
2023-03-18T21:17:28.732Z,59.59
2023-03-18T21:20:32.772Z,59.00
2023-03-18T21:23:36.871Z,58.54
2023-03-18T21:26:39.807Z,58.57
2023-03-18T21:29:43.034Z,59.15
2023-03-18T21:32:46.544Z,58.86
2023-03-18T21:35:52.239Z,59.47
2023-03-18T21:38:55.083Z,60.88
2023-03-18T21:41:57.795Z,59.93
2023-03-18T21:45:00.753Z,59.92
2023-03-18T21:48:03.480Z,59.64
2023-03-18T21:51:08.201Z,60.26
2023-03-18T21:54:20.220Z,59.88
2023-03-18T21:57:23.919Z,60.13
2023-03-18T22:00:27.285Z,60.30
2023-03-18T22:03:30.610Z,60.97
2023-03-18T22:06:34.472Z,59.77
2023-03-18T22:09:37.819Z,60.52
2023-03-18T22:12:40.849Z,59.58
2023-03-18T22:15:44.151Z,60.42
2023-03-18T22:18:47.894Z,59.20
2023-03-18T22:21:50.481Z,59.58
2023-03-18T22:24:54.450Z,60.64
2023-03-18T22:27:59.050Z,61.29
2023-03-18T22:31:03.322Z,61.67
2023-03-18T22:34:23.108Z,63.08
2023-03-18T22:37:26.651Z,62.90
2023-03-18T22:40:31.507Z,62.86
2023-03-18T22:43:38.051Z,63.00
2023-03-18T22:46:40.820Z,63.69
2023-03-18T22:49:44.327Z,63.83
2023-03-18T22:52:48.963Z,63.30
2023-03-18T22:55:54.730Z,64.50
2023-03-18T22:58:57.336Z,63.37
2023-03-18T23:02:00.803Z,64.42
2023-03-18T23:05:03.809Z,64.15
2023-03-18T23:08:06.630Z,64.69
2023-03-18T23:11:09.574Z,64.60
2023-03-18T23:14:12.796Z,64.36
2023-03-18T23:17:20.858Z,65.16
2023-03-18T23:20:23.470Z,66.03
2023-03-18T23:23:28.380Z,65.27
2023-03-18T23:26:33.134Z,65.42
2023-03-18T23:29:36.001Z,65.75
2023-03-18T23:32:39.364Z,65.71
2023-03-18T23:35:43.053Z,65.80
2023-03-18T23:38:46.191Z,66.67
2023-03-18T23:41:49.013Z,66.13
2023-03-18T23:44:51.540Z,66.49
2023-03-18T23:47:55.409Z,66.73
2023-03-18T23:50:58.026Z,65.02
2023-03-18T23:54:00.916Z,66.45
2023-03-18T23:57:04.624Z,66.41
